sensor_id;sensor_type;location;lat;lon;timestamp;temperature;humidity
19908;DHT22;10116;53.112;7.356;2023-07-29T00:02:22;26.80;99.90
19908;DHT22;10116;53.112;7.356;2023-07-29T00:04:47;26.80;99.90
19908;DHT22;10116;53.112;7.356;2023-07-29T00:07:13;26.80;99.90
19908;DHT22;10116;53.112;7.356;2023-07-29T00:09:39;26.80;99.90
19908;DHT22;10116;53.112;7.356;2023-07-29T00:12:05;26.80;99.90
19908;DHT22;10116;53.112;7.356;2023-07-29T00:14:30;26.80;99.90
19908;DHT22;10116;53.112;7.356;2023-07-29T00:16:56;26.80;99.90
19908;DHT22;10116;53.112;7.356;2023-07-29T00:19:21;26.80;99.90
19908;DHT22;10116;53.112;7.356;2023-07-29T00:21:49;26.80;99.90
19908;DHT22;10116;53.112;7.356;2023-07-29T00:24:14;26.80;99.90
19908;DHT22;10116;53.112;7.356;2023-07-29T00:26:40;26.80;99.90
19908;DHT22;10116;53.112;7.356;2023-07-29T00:29:05;26.70;99.90
19908;DHT22;10116;53.112;7.356;2023-07-29T00:31:31;26.80;99.90
19908;DHT22;10116;53.112;7.356;2023-07-29T00:33:56;26.80;99.90
19908;DHT22;10116;53.112;7.356;2023-07-29T00:36:23;26.70;99.90
19908;DHT22;10116;53.112;7.356;2023-07-29T00:38:49;26.70;99.90
19908;DHT22;10116;53.112;7.356;2023-07-29T00:41:15;26.70;99.90
19908;DHT22;10116;53.112;7.356;2023-07-29T00:43:41;26.80;99.90
19908;DHT22;10116;53.112;7.356;2023-07-29T00:46:08;26.80;99.90
19908;DHT22;10116;53.112;7.356;2023-07-29T00:48:35;26.80;99.90
19908;DHT22;10116;53.112;7.356;2023-07-29T00:51:00;26.70;99.90
19908;DHT22;10116;53.112;7.356;2023-07-29T00:53:26;26.80;99.90
19908;DHT22;10116;53.112;7.356;2023-07-29T00:55:52;26.80;99.90
19908;DHT22;10116;53.112;7.356;2023-07-29T00:58:17;26.70;99.90
19908;DHT22;10116;53.112;7.356;2023-07-29T01:00:44;26.80;99.90
19908;DHT22;10116;53.112;7.356;2023-07-29T01:03:10;26.80;99.90
19908;DHT22;10116;53.112;7.356;2023-07-29T01:11:48;26.80;99.90
19908;DHT22;10116;53.112;7.356;2023-07-29T01:17:13;26.70;99.90
19908;DHT22;10116;53.112;7.356;2023-07-29T01:19:42;26.70;99.90
19908;DHT22;10116;53.112;7.356;2023-07-29T01:22:11;26.70;99.90
19908;DHT22;10116;53.112;7.356;2023-07-29T01:24:37;26.70;99.90
19908;DHT22;10116;53.112;7.356;2023-07-29T01:27:02;26.70;99.90
19908;DHT22;10116;53.112;7.356;2023-07-29T01:29:30;26.70;99.90
19908;DHT22;10116;53.112;7.356;2023-07-29T01:31:59;26.70;99.90
19908;DHT22;10116;53.112;7.356;2023-07-29T01:34:32;26.70;99.90
19908;DHT22;10116;53.112;7.356;2023-07-29T01:37:02;26.70;99.90
19908;DHT22;10116;53.112;7.356;2023-07-29T01:39:32;26.70;99.90
19908;DHT22;10116;53.112;7.356;2023-07-29T01:41:58;26.70;99.90
19908;DHT22;10116;53.112;7.356;2023-07-29T01:44:24;26.70;99.90
19908;DHT22;10116;53.112;7.356;2023-07-29T01:46:51;26.70;99.90
19908;DHT22;10116;53.112;7.356;2023-07-29T01:49:16;26.70;99.90
19908;DHT22;10116;53.112;7.356;2023-07-29T01:51:42;26.70;99.90
19908;DHT22;10116;53.112;7.356;2023-07-29T01:54:08;26.70;99.90
19908;DHT22;10116;53.112;7.356;2023-07-29T01:56:34;26.70;99.90
19908;DHT22;10116;53.112;7.356;2023-07-29T01:59:00;26.70;99.90
19908;DHT22;10116;53.112;7.356;2023-07-29T02:01:25;26.70;99.90
19908;DHT22;10116;53.112;7.356;2023-07-29T02:03:51;26.70;99.90
19908;DHT22;10116;53.112;7.356;2023-07-29T02:06:20;26.70;99.90
19908;DHT22;10116;53.112;7.356;2023-07-29T02:08:46;26.60;99.90
19908;DHT22;10116;53.112;7.356;2023-07-29T02:11:12;26.60;99.90
19908;DHT22;10116;53.112;7.356;2023-07-29T02:13:37;26.60;99.90
19908;DHT22;10116;53.112;7.356;2023-07-29T02:16:03;26.60;99.90
19908;DHT22;10116;53.112;7.356;2023-07-29T02:18:29;26.60;99.90
19908;DHT22;10116;53.112;7.356;2023-07-29T02:20:54;26.60;99.90
19908;DHT22;10116;53.112;7.356;2023-07-29T02:23:20;26.60;99.90
19908;DHT22;10116;53.112;7.356;2023-07-29T02:25:45;26.70;99.90
19908;DHT22;10116;53.112;7.356;2023-07-29T02:28:11;26.60;99.90
19908;DHT22;10116;53.112;7.356;2023-07-29T02:30:40;26.60;99.90
19908;DHT22;10116;53.112;7.356;2023-07-29T02:33:05;26.60;99.90
19908;DHT22;10116;53.112;7.356;2023-07-29T02:35:31;26.60;99.90
19908;DHT22;10116;53.112;7.356;2023-07-29T02:37:57;26.60;99.90
19908;DHT22;10116;53.112;7.356;2023-07-29T02:40:22;26.60;99.90
19908;DHT22;10116;53.112;7.356;2023-07-29T02:42:48;26.60;99.90
19908;DHT22;10116;53.112;7.356;2023-07-29T02:45:14;26.60;99.90
19908;DHT22;10116;53.112;7.356;2023-07-29T02:47:39;26.60;99.90
19908;DHT22;10116;53.112;7.356;2023-07-29T02:50:05;26.60;99.90
19908;DHT22;10116;53.112;7.356;2023-07-29T02:52:31;26.60;99.90
19908;DHT22;10116;53.112;7.356;2023-07-29T02:54:56;26.60;99.90
19908;DHT22;10116;53.112;7.356;2023-07-29T02:57:22;26.60;99.90
19908;DHT22;10116;53.112;7.356;2023-07-29T02:59:47;26.60;99.90
19908;DHT22;10116;53.112;7.356;2023-07-29T03:02:13;26.60;99.90
19908;DHT22;10116;53.112;7.356;2023-07-29T03:04:41;26.60;99.90
19908;DHT22;10116;53.112;7.356;2023-07-29T03:07:07;26.60;99.90
19908;DHT22;10116;53.112;7.356;2023-07-29T03:09:32;26.60;99.90
19908;DHT22;10116;53.112;7.356;2023-07-29T03:11:58;26.60;99.90
19908;DHT22;10116;53.112;7.356;2023-07-29T03:14:24;26.60;99.90
19908;DHT22;10116;53.112;7.356;2023-07-29T03:16:50;26.60;99.90
19908;DHT22;10116;53.112;7.356;2023-07-29T03:19:15;26.60;99.90
19908;DHT22;10116;53.112;7.356;2023-07-29T03:21:41;26.60;99.90
19908;DHT22;10116;53.112;7.356;2023-07-29T03:24:07;26.60;99.90
19908;DHT22;10116;53.112;7.356;2023-07-29T03:26:32;26.60;99.90
19908;DHT22;10116;53.112;7.356;2023-07-29T03:28:58;26.60;99.90
19908;DHT22;10116;53.112;7.356;2023-07-29T03:31:24;26.60;99.90
19908;DHT22;10116;53.112;7.356;2023-07-29T03:33:49;26.60;99.90
19908;DHT22;10116;53.112;7.356;2023-07-29T03:36:15;26.70;99.90
19908;DHT22;10116;53.112;7.356;2023-07-29T03:38:41;26.70;99.90
19908;DHT22;10116;53.112;7.356;2023-07-29T03:41:08;26.70;99.90
19908;DHT22;10116;53.112;7.356;2023-07-29T03:43:34;26.80;99.90
19908;DHT22;10116;53.112;7.356;2023-07-29T03:46:00;26.80;99.90
19908;DHT22;10116;53.112;7.356;2023-07-29T03:48:25;26.90;99.90
19908;DHT22;10116;53.112;7.356;2023-07-29T03:50:51;26.90;99.90
19908;DHT22;10116;53.112;7.356;2023-07-29T03:53:16;26.90;99.90
19908;DHT22;10116;53.112;7.356;2023-07-29T03:55:42;26.90;99.90
19908;DHT22;10116;53.112;7.356;2023-07-29T03:58:08;26.90;99.90
19908;DHT22;10116;53.112;7.356;2023-07-29T04:00:34;26.90;99.90
19908;DHT22;10116;53.112;7.356;2023-07-29T04:02:59;26.90;99.90
19908;DHT22;10116;53.112;7.356;2023-07-29T04:05:25;26.90;99.90
19908;DHT22;10116;53.112;7.356;2023-07-29T04:07:50;27.00;99.90
19908;DHT22;10116;53.112;7.356;2023-07-29T04:10:16;27.00;99.90
19908;DHT22;10116;53.112;7.356;2023-07-29T04:12:43;27.00;99.90
19908;DHT22;10116;53.112;7.356;2023-07-29T04:15:09;27.00;99.90
19908;DHT22;10116;53.112;7.356;2023-07-29T04:17:34;27.00;99.90
19908;DHT22;10116;53.112;7.356;2023-07-29T04:20:00;27.00;99.90
19908;DHT22;10116;53.112;7.356;2023-07-29T04:22:25;27.00;99.90
19908;DHT22;10116;53.112;7.356;2023-07-29T04:24:51;27.00;99.90
19908;DHT22;10116;53.112;7.356;2023-07-29T04:27:16;27.00;99.90
19908;DHT22;10116;53.112;7.356;2023-07-29T04:29:42;27.00;99.90
19908;DHT22;10116;53.112;7.356;2023-07-29T04:32:07;27.00;99.90
19908;DHT22;10116;53.112;7.356;2023-07-29T04:34:33;27.00;99.90
19908;DHT22;10116;53.112;7.356;2023-07-29T04:36:59;27.00;99.90
19908;DHT22;10116;53.112;7.356;2023-07-29T04:39:24;27.00;99.90
19908;DHT22;10116;53.112;7.356;2023-07-29T04:41:50;27.00;99.90
19908;DHT22;10116;53.112;7.356;2023-07-29T04:44:15;27.00;99.90
19908;DHT22;10116;53.112;7.356;2023-07-29T04:46:41;27.00;99.90
19908;DHT22;10116;53.112;7.356;2023-07-29T04:49:06;26.90;99.90
19908;DHT22;10116;53.112;7.356;2023-07-29T04:51:32;27.00;99.90
19908;DHT22;10116;53.112;7.356;2023-07-29T04:53:58;27.00;99.90
19908;DHT22;10116;53.112;7.356;2023-07-29T04:56:24;26.90;99.90
19908;DHT22;10116;53.112;7.356;2023-07-29T04:58:49;26.90;99.90
19908;DHT22;10116;53.112;7.356;2023-07-29T05:01:15;26.90;99.90
19908;DHT22;10116;53.112;7.356;2023-07-29T05:03:41;26.90;99.90
19908;DHT22;10116;53.112;7.356;2023-07-29T05:06:06;26.90;99.90
19908;DHT22;10116;53.112;7.356;2023-07-29T05:08:32;26.90;99.90
19908;DHT22;10116;53.112;7.356;2023-07-29T05:10:58;26.90;99.90
19908;DHT22;10116;53.112;7.356;2023-07-29T05:13:23;26.90;99.90
19908;DHT22;10116;53.112;7.356;2023-07-29T05:15:49;26.90;99.90
19908;DHT22;10116;53.112;7.356;2023-07-29T05:18:15;26.90;99.90
19908;DHT22;10116;53.112;7.356;2023-07-29T05:20:41;26.90;99.90
19908;DHT22;10116;53.112;7.356;2023-07-29T05:23:07;26.90;99.90
19908;DHT22;10116;53.112;7.356;2023-07-29T05:25:33;26.90;99.90
19908;DHT22;10116;53.112;7.356;2023-07-29T05:28:00;26.90;99.90
19908;DHT22;10116;53.112;7.356;2023-07-29T05:30:26;27.00;99.90
19908;DHT22;10116;53.112;7.356;2023-07-29T05:32:52;27.00;99.90
19908;DHT22;10116;53.112;7.356;2023-07-29T05:35:18;27.00;99.90
19908;DHT22;10116;53.112;7.356;2023-07-29T05:37:43;27.10;99.90
19908;DHT22;10116;53.112;7.356;2023-07-29T05:40:09;27.10;99.90
19908;DHT22;10116;53.112;7.356;2023-07-29T05:42:35;27.10;99.90
19908;DHT22;10116;53.112;7.356;2023-07-29T05:45:01;27.10;99.90
19908;DHT22;10116;53.112;7.356;2023-07-29T05:47:27;27.10;99.90
19908;DHT22;10116;53.112;7.356;2023-07-29T05:49:52;27.10;99.90
19908;DHT22;10116;53.112;7.356;2023-07-29T05:52:18;27.20;99.90
19908;DHT22;10116;53.112;7.356;2023-07-29T05:54:44;27.20;99.90
19908;DHT22;10116;53.112;7.356;2023-07-29T05:57:11;27.10;99.90
19908;DHT22;10116;53.112;7.356;2023-07-29T05:59:37;27.10;99.90
19908;DHT22;10116;53.112;7.356;2023-07-29T06:02:03;27.10;99.90
19908;DHT22;10116;53.112;7.356;2023-07-29T06:04:29;27.10;99.90
19908;DHT22;10116;53.112;7.356;2023-07-29T06:06:54;27.20;99.90
19908;DHT22;10116;53.112;7.356;2023-07-29T06:09:24;27.10;99.90
19908;DHT22;10116;53.112;7.356;2023-07-29T06:11:51;27.10;99.90
19908;DHT22;10116;53.112;7.356;2023-07-29T06:14:16;27.10;99.90
19908;DHT22;10116;53.112;7.356;2023-07-29T06:16:42;27.10;99.90
19908;DHT22;10116;53.112;7.356;2023-07-29T06:19:08;27.10;99.90
19908;DHT22;10116;53.112;7.356;2023-07-29T06:21:34;27.10;99.90
19908;DHT22;10116;53.112;7.356;2023-07-29T06:24:00;27.10;99.90
19908;DHT22;10116;53.112;7.356;2023-07-29T06:26:26;27.10;99.90
19908;DHT22;10116;53.112;7.356;2023-07-29T06:28:51;27.10;99.90
19908;DHT22;10116;53.112;7.356;2023-07-29T06:31:17;27.10;99.90
19908;DHT22;10116;53.112;7.356;2023-07-29T06:33:43;27.10;99.90
19908;DHT22;10116;53.112;7.356;2023-07-29T06:36:08;27.10;99.90
19908;DHT22;10116;53.112;7.356;2023-07-29T06:38:34;27.00;99.90
19908;DHT22;10116;53.112;7.356;2023-07-29T06:40:59;27.00;99.90
19908;DHT22;10116;53.112;7.356;2023-07-29T06:43:25;27.00;99.90
19908;DHT22;10116;53.112;7.356;2023-07-29T06:45:50;27.00;99.90
19908;DHT22;10116;53.112;7.356;2023-07-29T06:48:17;27.00;99.90
19908;DHT22;10116;53.112;7.356;2023-07-29T06:50:44;27.00;99.90
19908;DHT22;10116;53.112;7.356;2023-07-29T06:53:09;26.90;99.90
19908;DHT22;10116;53.112;7.356;2023-07-29T06:55:35;26.90;99.90
19908;DHT22;10116;53.112;7.356;2023-07-29T06:58:01;26.90;99.90
19908;DHT22;10116;53.112;7.356;2023-07-29T07:00:27;26.90;99.90
19908;DHT22;10116;53.112;7.356;2023-07-29T07:02:52;26.90;99.90
19908;DHT22;10116;53.112;7.356;2023-07-29T07:05:18;26.90;99.90
19908;DHT22;10116;53.112;7.356;2023-07-29T07:07:44;26.90;99.90
19908;DHT22;10116;53.112;7.356;2023-07-29T07:10:09;26.90;99.90
19908;DHT22;10116;53.112;7.356;2023-07-29T07:12:35;26.90;99.90
19908;DHT22;10116;53.112;7.356;2023-07-29T07:15:01;26.90;99.90
19908;DHT22;10116;53.112;7.356;2023-07-29T07:17:27;27.00;99.90
19908;DHT22;10116;53.112;7.356;2023-07-29T07:19:52;27.00;99.90
19908;DHT22;10116;53.112;7.356;2023-07-29T07:22:18;27.00;99.90
19908;DHT22;10116;53.112;7.356;2023-07-29T07:24:44;27.00;99.90
19908;DHT22;10116;53.112;7.356;2023-07-29T07:27:09;27.00;99.90
19908;DHT22;10116;53.112;7.356;2023-07-29T07:29:35;27.00;99.90
19908;DHT22;10116;53.112;7.356;2023-07-29T07:32:01;27.10;99.90
19908;DHT22;10116;53.112;7.356;2023-07-29T07:34:26;27.10;99.90
19908;DHT22;10116;53.112;7.356;2023-07-29T07:36:52;27.10;99.90
19908;DHT22;10116;53.112;7.356;2023-07-29T07:39:17;27.00;99.90
19908;DHT22;10116;53.112;7.356;2023-07-29T07:41:43;27.00;99.90
19908;DHT22;10116;53.112;7.356;2023-07-29T07:44:09;27.00;99.90
19908;DHT22;10116;53.112;7.356;2023-07-29T07:46:36;27.00;99.90
19908;DHT22;10116;53.112;7.356;2023-07-29T07:49:01;27.00;99.90
19908;DHT22;10116;53.112;7.356;2023-07-29T07:51:27;27.00;99.90
19908;DHT22;10116;53.112;7.356;2023-07-29T07:53:53;27.00;99.90
19908;DHT22;10116;53.112;7.356;2023-07-29T07:56:18;27.00;99.90
19908;DHT22;10116;53.112;7.356;2023-07-29T07:58:44;27.00;99.90
19908;DHT22;10116;53.112;7.356;2023-07-29T08:01:09;27.00;99.90
19908;DHT22;10116;53.112;7.356;2023-07-29T08:03:35;27.00;99.90
19908;DHT22;10116;53.112;7.356;2023-07-29T08:06:02;27.00;99.90
19908;DHT22;10116;53.112;7.356;2023-07-29T08:08:28;27.00;99.90
19908;DHT22;10116;53.112;7.356;2023-07-29T08:10:54;26.90;99.90
19908;DHT22;10116;53.112;7.356;2023-07-29T08:13:22;26.90;99.90
19908;DHT22;10116;53.112;7.356;2023-07-29T08:15:49;26.90;99.90
19908;DHT22;10116;53.112;7.356;2023-07-29T08:18:15;26.90;99.90
19908;DHT22;10116;53.112;7.356;2023-07-29T08:20:41;26.90;99.90
19908;DHT22;10116;53.112;7.356;2023-07-29T08:23:06;26.90;99.90
19908;DHT22;10116;53.112;7.356;2023-07-29T08:25:32;26.80;99.90
19908;DHT22;10116;53.112;7.356;2023-07-29T08:27:57;26.80;99.90
19908;DHT22;10116;53.112;7.356;2023-07-29T08:30:23;26.80;99.90
19908;DHT22;10116;53.112;7.356;2023-07-29T08:32:49;26.80;99.90
19908;DHT22;10116;53.112;7.356;2023-07-29T08:35:14;26.80;99.90
19908;DHT22;10116;53.112;7.356;2023-07-29T08:37:40;26.80;99.90
19908;DHT22;10116;53.112;7.356;2023-07-29T08:40:06;26.70;99.90
19908;DHT22;10116;53.112;7.356;2023-07-29T08:42:32;26.70;99.90
19908;DHT22;10116;53.112;7.356;2023-07-29T08:45:06;26.70;99.90
19908;DHT22;10116;53.112;7.356;2023-07-29T08:47:36;26.70;99.90
19908;DHT22;10116;53.112;7.356;2023-07-29T08:50:03;26.70;99.90
19908;DHT22;10116;53.112;7.356;2023-07-29T08:52:29;26.70;99.90
19908;DHT22;10116;53.112;7.356;2023-07-29T08:54:57;26.70;99.90
19908;DHT22;10116;53.112;7.356;2023-07-29T08:57:23;26.70;99.90
19908;DHT22;10116;53.112;7.356;2023-07-29T08:59:49;26.70;99.90
19908;DHT22;10116;53.112;7.356;2023-07-29T09:02:15;26.70;99.90
19908;DHT22;10116;53.112;7.356;2023-07-29T09:04:41;26.70;99.90
19908;DHT22;10116;53.112;7.356;2023-07-29T09:07:07;26.70;99.90
19908;DHT22;10116;53.112;7.356;2023-07-29T09:09:33;26.70;99.90
19908;DHT22;10116;53.112;7.356;2023-07-29T09:11:58;26.70;99.90
19908;DHT22;10116;53.112;7.356;2023-07-29T09:14:24;26.70;99.90
19908;DHT22;10116;53.112;7.356;2023-07-29T09:16:50;26.60;99.90
19908;DHT22;10116;53.112;7.356;2023-07-29T09:19:16;26.60;99.90
19908;DHT22;10116;53.112;7.356;2023-07-29T09:21:42;26.60;99.90
19908;DHT22;10116;53.112;7.356;2023-07-29T09:24:08;26.60;99.90
19908;DHT22;10116;53.112;7.356;2023-07-29T09:26:34;26.60;99.90
19908;DHT22;10116;53.112;7.356;2023-07-29T09:29:00;26.60;99.90
19908;DHT22;10116;53.112;7.356;2023-07-29T09:31:27;26.60;99.90
19908;DHT22;10116;53.112;7.356;2023-07-29T09:34:03;26.70;99.90
19908;DHT22;10116;53.112;7.356;2023-07-29T09:36:33;26.70;99.90
19908;DHT22;10116;53.112;7.356;2023-07-29T09:38:59;26.80;99.90
19908;DHT22;10116;53.112;7.356;2023-07-29T09:41:26;26.80;99.90
19908;DHT22;10116;53.112;7.356;2023-07-29T09:44:00;26.80;99.90
19908;DHT22;10116;53.112;7.356;2023-07-29T09:46:35;26.80;99.90
19908;DHT22;10116;53.112;7.356;2023-07-29T09:49:03;26.80;99.90
19908;DHT22;10116;53.112;7.356;2023-07-29T09:51:28;26.80;99.90
19908;DHT22;10116;53.112;7.356;2023-07-29T09:53:54;26.80;99.90
19908;DHT22;10116;53.112;7.356;2023-07-29T09:56:25;26.80;99.90
19908;DHT22;10116;53.112;7.356;2023-07-29T09:58:51;26.70;99.90
19908;DHT22;10116;53.112;7.356;2023-07-29T10:01:18;26.70;99.90
19908;DHT22;10116;53.112;7.356;2023-07-29T10:03:44;26.80;99.90
19908;DHT22;10116;53.112;7.356;2023-07-29T10:06:11;26.70;99.90
19908;DHT22;10116;53.112;7.356;2023-07-29T10:08:37;26.70;99.90
19908;DHT22;10116;53.112;7.356;2023-07-29T10:11:05;26.70;99.90
19908;DHT22;10116;53.112;7.356;2023-07-29T10:13:33;26.70;99.90
19908;DHT22;10116;53.112;7.356;2023-07-29T10:15:59;26.70;99.90
19908;DHT22;10116;53.112;7.356;2023-07-29T10:18:28;26.70;99.90
19908;DHT22;10116;53.112;7.356;2023-07-29T10:20:56;26.70;99.90
19908;DHT22;10116;53.112;7.356;2023-07-29T10:23:25;26.70;99.90
19908;DHT22;10116;53.112;7.356;2023-07-29T10:25:58;26.70;99.90
19908;DHT22;10116;53.112;7.356;2023-07-29T10:28:26;26.70;99.90
19908;DHT22;10116;53.112;7.356;2023-07-29T10:30:54;26.70;99.90
19908;DHT22;10116;53.112;7.356;2023-07-29T10:33:21;26.80;99.90
19908;DHT22;10116;53.112;7.356;2023-07-29T10:35:47;26.80;99.90
19908;DHT22;10116;53.112;7.356;2023-07-29T10:38:13;26.80;99.90
19908;DHT22;10116;53.112;7.356;2023-07-29T10:40:47;26.80;99.90
19908;DHT22;10116;53.112;7.356;2023-07-29T10:43:32;26.90;99.90
19908;DHT22;10116;53.112;7.356;2023-07-29T10:46:21;26.90;99.90
19908;DHT22;10116;53.112;7.356;2023-07-29T10:51:36;26.90;99.90
19908;DHT22;10116;53.112;7.356;2023-07-29T10:54:04;26.90;99.90
19908;DHT22;10116;53.112;7.356;2023-07-29T10:56:36;26.90;99.90
19908;DHT22;10116;53.112;7.356;2023-07-29T11:02:01;26.90;99.90
19908;DHT22;10116;53.112;7.356;2023-07-29T11:04:29;26.90;99.90
19908;DHT22;10116;53.112;7.356;2023-07-29T11:09:54;27.00;99.90
19908;DHT22;10116;53.112;7.356;2023-07-29T11:12:40;27.00;99.90
19908;DHT22;10116;53.112;7.356;2023-07-29T11:17:46;27.10;99.90
19908;DHT22;10116;53.112;7.356;2023-07-29T11:20:13;27.10;99.90
19908;DHT22;10116;53.112;7.356;2023-07-29T11:22:39;27.10;99.90
19908;DHT22;10116;53.112;7.356;2023-07-29T11:25:06;27.20;99.90
19908;DHT22;10116;53.112;7.356;2023-07-29T11:27:32;27.20;99.90
19908;DHT22;10116;53.112;7.356;2023-07-29T11:29:59;27.20;99.90
19908;DHT22;10116;53.112;7.356;2023-07-29T11:32:26;27.20;99.90
19908;DHT22;10116;53.112;7.356;2023-07-29T11:34:51;27.20;99.90
19908;DHT22;10116;53.112;7.356;2023-07-29T11:37:17;27.20;99.90
19908;DHT22;10116;53.112;7.356;2023-07-29T11:39:44;27.20;99.90
19908;DHT22;10116;53.112;7.356;2023-07-29T11:42:14;27.30;99.90
19908;DHT22;10116;53.112;7.356;2023-07-29T11:44:40;27.30;99.90
19908;DHT22;10116;53.112;7.356;2023-07-29T11:47:12;27.30;99.90
19908;DHT22;10116;53.112;7.356;2023-07-29T11:49:41;27.30;99.90
19908;DHT22;10116;53.112;7.356;2023-07-29T11:52:08;27.30;99.90
19908;DHT22;10116;53.112;7.356;2023-07-29T11:54:38;27.30;99.90
19908;DHT22;10116;53.112;7.356;2023-07-29T11:57:07;27.30;99.90
19908;DHT22;10116;53.112;7.356;2023-07-29T11:59:34;27.40;99.90
19908;DHT22;10116;53.112;7.356;2023-07-29T12:02:01;27.30;99.90
19908;DHT22;10116;53.112;7.356;2023-07-29T12:04:28;27.40;99.90
19908;DHT22;10116;53.112;7.356;2023-07-29T12:06:55;27.30;99.90
19908;DHT22;10116;53.112;7.356;2023-07-29T12:09:21;27.30;99.90
19908;DHT22;10116;53.112;7.356;2023-07-29T12:11:47;27.30;99.90
19908;DHT22;10116;53.112;7.356;2023-07-29T12:14:13;27.30;99.90
19908;DHT22;10116;53.112;7.356;2023-07-29T12:16:43;27.30;99.90
19908;DHT22;10116;53.112;7.356;2023-07-29T12:19:11;27.20;99.90
19908;DHT22;10116;53.112;7.356;2023-07-29T12:21:37;27.20;99.90
19908;DHT22;10116;53.112;7.356;2023-07-29T12:24:03;27.20;99.90
19908;DHT22;10116;53.112;7.356;2023-07-29T12:26:29;27.20;99.90
19908;DHT22;10116;53.112;7.356;2023-07-29T12:28:55;27.20;99.90
19908;DHT22;10116;53.112;7.356;2023-07-29T12:31:28;27.20;99.90
19908;DHT22;10116;53.112;7.356;2023-07-29T12:33:56;27.20;99.90
19908;DHT22;10116;53.112;7.356;2023-07-29T12:36:21;27.20;99.90
19908;DHT22;10116;53.112;7.356;2023-07-29T12:38:47;27.20;99.90
19908;DHT22;10116;53.112;7.356;2023-07-29T12:41:12;27.20;99.90
19908;DHT22;10116;53.112;7.356;2023-07-29T12:43:38;27.20;99.90
19908;DHT22;10116;53.112;7.356;2023-07-29T12:46:04;27.20;99.90
19908;DHT22;10116;53.112;7.356;2023-07-29T12:48:29;27.20;99.90
19908;DHT22;10116;53.112;7.356;2023-07-29T12:50:55;27.20;99.90
19908;DHT22;10116;53.112;7.356;2023-07-29T12:53:21;27.20;99.90
19908;DHT22;10116;53.112;7.356;2023-07-29T12:55:46;27.20;99.90
19908;DHT22;10116;53.112;7.356;2023-07-29T12:58:12;27.20;99.90
19908;DHT22;10116;53.112;7.356;2023-07-29T13:00:37;27.20;99.90
19908;DHT22;10116;53.112;7.356;2023-07-29T13:03:03;27.20;99.90
19908;DHT22;10116;53.112;7.356;2023-07-29T13:05:31;27.20;99.90
19908;DHT22;10116;53.112;7.356;2023-07-29T13:07:56;27.20;99.90
19908;DHT22;10116;53.112;7.356;2023-07-29T13:10:22;27.20;99.90
19908;DHT22;10116;53.112;7.356;2023-07-29T13:12:47;27.20;99.90
19908;DHT22;10116;53.112;7.356;2023-07-29T13:15:14;27.10;99.90
19908;DHT22;10116;53.112;7.356;2023-07-29T13:17:39;27.20;99.90
19908;DHT22;10116;53.112;7.356;2023-07-29T13:20:06;27.20;99.90
19908;DHT22;10116;53.112;7.356;2023-07-29T13:22:31;27.30;99.90
19908;DHT22;10116;53.112;7.356;2023-07-29T13:24:57;27.30;99.90
19908;DHT22;10116;53.112;7.356;2023-07-29T13:27:23;27.40;99.90
19908;DHT22;10116;53.112;7.356;2023-07-29T13:29:49;27.40;99.90
19908;DHT22;10116;53.112;7.356;2023-07-29T13:32:15;27.40;99.90
19908;DHT22;10116;53.112;7.356;2023-07-29T13:34:40;27.40;99.90
19908;DHT22;10116;53.112;7.356;2023-07-29T13:37:06;27.50;99.90
19908;DHT22;10116;53.112;7.356;2023-07-29T13:39:32;27.50;99.90
19908;DHT22;10116;53.112;7.356;2023-07-29T13:41:57;27.50;99.90
19908;DHT22;10116;53.112;7.356;2023-07-29T13:44:23;27.50;99.90
19908;DHT22;10116;53.112;7.356;2023-07-29T13:46:48;27.50;99.90
19908;DHT22;10116;53.112;7.356;2023-07-29T13:49:14;27.50;99.90
19908;DHT22;10116;53.112;7.356;2023-07-29T13:51:39;27.50;99.90
19908;DHT22;10116;53.112;7.356;2023-07-29T13:54:05;27.50;99.90
19908;DHT22;10116;53.112;7.356;2023-07-29T13:56:31;27.50;99.90
19908;DHT22;10116;53.112;7.356;2023-07-29T13:58:56;27.50;99.90
19908;DHT22;10116;53.112;7.356;2023-07-29T14:01:22;27.60;99.90
19908;DHT22;10116;53.112;7.356;2023-07-29T14:03:47;27.60;99.90
19908;DHT22;10116;53.112;7.356;2023-07-29T14:06:13;27.50;99.90
19908;DHT22;10116;53.112;7.356;2023-07-29T14:08:38;27.60;99.90
19908;DHT22;10116;53.112;7.356;2023-07-29T14:11:06;27.60;99.90
19908;DHT22;10116;53.112;7.356;2023-07-29T14:13:31;27.60;99.90
19908;DHT22;10116;53.112;7.356;2023-07-29T14:15:57;27.60;99.90
19908;DHT22;10116;53.112;7.356;2023-07-29T14:18:25;27.60;99.90
19908;DHT22;10116;53.112;7.356;2023-07-29T14:20:50;27.60;99.90
19908;DHT22;10116;53.112;7.356;2023-07-29T14:23:16;27.60;99.90
19908;DHT22;10116;53.112;7.356;2023-07-29T14:25:42;27.60;99.90
19908;DHT22;10116;53.112;7.356;2023-07-29T14:28:07;27.60;99.90
19908;DHT22;10116;53.112;7.356;2023-07-29T14:30:34;27.60;99.90
19908;DHT22;10116;53.112;7.356;2023-07-29T14:33:00;27.60;99.90
19908;DHT22;10116;53.112;7.356;2023-07-29T14:35:26;27.60;99.90
19908;DHT22;10116;53.112;7.356;2023-07-29T14:37:51;27.60;99.90
19908;DHT22;10116;53.112;7.356;2023-07-29T14:40:17;27.60;99.90
19908;DHT22;10116;53.112;7.356;2023-07-29T14:42:43;27.50;99.90
19908;DHT22;10116;53.112;7.356;2023-07-29T14:45:08;27.50;99.90
19908;DHT22;10116;53.112;7.356;2023-07-29T14:47:34;27.50;99.90
19908;DHT22;10116;53.112;7.356;2023-07-29T14:50:00;27.50;99.90
19908;DHT22;10116;53.112;7.356;2023-07-29T14:52:26;27.50;99.90
19908;DHT22;10116;53.112;7.356;2023-07-29T14:54:51;27.50;99.90
19908;DHT22;10116;53.112;7.356;2023-07-29T14:57:17;27.50;99.90
19908;DHT22;10116;53.112;7.356;2023-07-29T14:59:43;27.50;99.90
19908;DHT22;10116;53.112;7.356;2023-07-29T15:02:08;27.50;99.90
19908;DHT22;10116;53.112;7.356;2023-07-29T15:04:34;27.50;99.90
19908;DHT22;10116;53.112;7.356;2023-07-29T15:07:00;27.50;99.90
19908;DHT22;10116;53.112;7.356;2023-07-29T15:09:25;27.60;99.90
19908;DHT22;10116;53.112;7.356;2023-07-29T15:11:51;27.60;99.90
19908;DHT22;10116;53.112;7.356;2023-07-29T15:14:17;27.60;99.90
19908;DHT22;10116;53.112;7.356;2023-07-29T15:16:42;27.70;99.90
19908;DHT22;10116;53.112;7.356;2023-07-29T15:19:08;27.70;99.90
19908;DHT22;10116;53.112;7.356;2023-07-29T15:21:33;27.70;99.90
19908;DHT22;10116;53.112;7.356;2023-07-29T15:23:59;27.70;99.90
19908;DHT22;10116;53.112;7.356;2023-07-29T15:26:25;27.70;99.90
19908;DHT22;10116;53.112;7.356;2023-07-29T15:28:50;27.70;99.90
19908;DHT22;10116;53.112;7.356;2023-07-29T15:31:16;27.70;99.90
19908;DHT22;10116;53.112;7.356;2023-07-29T15:33:42;27.70;99.90
19908;DHT22;10116;53.112;7.356;2023-07-29T15:36:08;27.70;99.90
19908;DHT22;10116;53.112;7.356;2023-07-29T15:38:33;27.70;99.90
19908;DHT22;10116;53.112;7.356;2023-07-29T15:41:00;27.70;99.90
19908;DHT22;10116;53.112;7.356;2023-07-29T15:43:26;27.70;99.90
19908;DHT22;10116;53.112;7.356;2023-07-29T15:45:52;27.70;99.90